Aviation Digital Data Service (ADDS)

Output produced by METARs form (0737 UTC 18 November 2018)
found at http://www.aviationweather.gov/metar/data/
 
METAR text: RJDC 180700Z 28004KT 250V330 9999 FEW020 SCT050 BKN080 16/12 Q1017
Conditions at: RJDC (YAMAGUCHI/UBE AR, JP) observed 0700 UTC 18 November 2018
Temperature: 16.0°C (61°F)
Dewpoint: 12.0°C (54°F) [RH = 77%]
Pressure (altimeter): 30.03 inches Hg (1017.0 mb)
Winds: from the W (280 degrees) at 5 MPH (4 knots; 2.1 m/s)
Visibility: 6 or more miles (10+ km)
Ceiling: 8000 feet AGL
Clouds: few clouds at 2000 feet AGL
scattered clouds at 5000 feet AGL
broken clouds at 8000 feet AGL
Weather: no significant weather observed at this time